createdAt,value
2023-01-03T00:00:42.071Z,13.00
2023-01-03T00:03:12.294Z,12.37
2023-01-03T00:05:42.623Z,9.87
2023-01-03T00:08:10.611Z,9.90
2023-01-03T00:10:38.822Z,8.37
2023-01-03T00:13:06.876Z,11.13
2023-01-03T00:15:35.813Z,10.80
2023-01-03T00:18:06.253Z,7.97
2023-01-03T00:20:35.213Z,9.13
2023-01-03T00:23:03.299Z,7.20
2023-01-03T00:25:31.174Z,6.17
2023-01-03T00:27:59.035Z,12.43
2023-01-03T00:30:26.932Z,10.53
2023-01-03T00:32:54.893Z,9.93
2023-01-03T00:35:24.273Z,6.33
2023-01-03T00:37:52.225Z,12.10
2023-01-03T00:40:20.052Z,6.83
2023-01-03T00:43:05.313Z,10.23
2023-01-03T00:45:35.534Z,6.60
2023-01-03T00:48:03.738Z,8.53
2023-01-03T00:50:33.006Z,9.70
2023-01-03T00:53:00.877Z,8.17
2023-01-03T00:55:28.681Z,7.97
2023-01-03T00:57:56.462Z,8.97
2023-01-03T01:00:24.494Z,9.13
2023-01-03T01:02:54.794Z,9.10
2023-01-03T01:05:23.391Z,6.57
2023-01-03T01:07:52.636Z,9.80
2023-01-03T01:10:20.748Z,10.00
2023-01-03T01:12:48.630Z,9.03
2023-01-03T01:15:16.455Z,7.13
2023-01-03T01:17:44.354Z,7.83
2023-01-03T01:20:13.787Z,10.80
2023-01-03T01:22:41.737Z,9.83
2023-01-03T01:25:11.213Z,10.57
2023-01-03T01:27:39.160Z,15.97
2023-01-03T01:30:10.481Z,9.40
2023-01-03T01:32:38.216Z,13.47
2023-01-03T01:35:06.643Z,12.83
2023-01-03T01:37:34.521Z,8.43
2023-01-03T01:40:03.210Z,9.57
2023-01-03T01:42:49.900Z,9.67
2023-01-03T01:45:17.779Z,11.63
2023-01-03T01:47:51.932Z,9.60
2023-01-03T01:50:25.304Z,9.77
2023-01-03T01:52:58.872Z,18.63
2023-01-03T01:55:36.784Z,11.23
2023-01-03T01:58:07.544Z,12.43
2023-01-03T02:00:36.236Z,9.57
2023-01-03T02:03:05.037Z,11.30
2023-01-03T02:05:37.484Z,9.13
2023-01-03T02:08:06.228Z,12.23
2023-01-03T02:10:47.278Z,13.97
2023-01-03T02:13:25.724Z,13.07
2023-01-03T02:16:19.759Z,11.30
2023-01-03T02:18:54.968Z,9.50
2023-01-03T02:21:59.538Z,12.40
2023-01-03T02:25:15.921Z,13.40
2023-01-03T02:28:16.894Z,13.57
2023-01-03T02:30:53.182Z,14.70
2023-01-03T02:33:28.463Z,14.60
2023-01-03T02:36:06.855Z,12.73
2023-01-03T02:38:48.033Z,15.10
2023-01-03T02:41:25.478Z,14.40
2023-01-03T02:43:56.740Z,15.13
2023-01-03T02:46:31.923Z,15.90
2023-01-03T02:49:06.788Z,14.27
2023-01-03T02:51:38.285Z,12.10
2023-01-03T02:54:11.608Z,11.50
2023-01-03T02:56:45.290Z,16.63
2023-01-03T02:59:16.910Z,11.67
2023-01-03T03:01:50.160Z,14.30
2023-01-03T03:04:19.634Z,12.77
2023-01-03T03:06:53.526Z,9.77
2023-01-03T03:09:21.374Z,13.20
2023-01-03T03:12:07.561Z,13.37
2023-01-03T03:14:40.649Z,7.80
2023-01-03T03:17:14.887Z,9.53
2023-01-03T03:20:06.028Z,12.20
2023-01-03T03:22:57.088Z,11.63
2023-01-03T03:25:28.811Z,11.17
2023-01-03T03:28:17.855Z,11.20
2023-01-03T03:30:49.159Z,9.97
2023-01-03T03:33:21.487Z,10.27
2023-01-03T03:35:55.743Z,8.97
2023-01-03T03:38:28.825Z,10.10
2023-01-03T03:41:27.938Z,9.13
2023-01-03T03:44:22.585Z,9.90
2023-01-03T03:46:57.310Z,8.90
2023-01-03T03:49:41.033Z,8.77
2023-01-03T03:52:14.602Z,12.33
2023-01-03T03:54:47.937Z,10.67
2023-01-03T03:57:22.118Z,9.70
2023-01-03T03:59:54.608Z,10.10
2023-01-03T04:02:24.283Z,12.13
2023-01-03T04:04:58.103Z,7.33
2023-01-03T04:07:26.384Z,10.20
2023-01-03T04:09:54.307Z,10.67
2023-01-03T04:12:22.338Z,12.07
2023-01-03T04:14:50.272Z,12.63
2023-01-03T04:17:20.092Z,7.63
2023-01-03T04:19:48.011Z,10.13
2023-01-03T04:22:17.390Z,8.40
2023-01-03T04:24:45.331Z,11.60
2023-01-03T04:27:13.170Z,10.10
2023-01-03T04:29:41.822Z,10.00
2023-01-03T04:32:10.259Z,12.47
2023-01-03T04:34:38.271Z,9.47
2023-01-03T04:37:06.203Z,11.93
2023-01-03T04:39:37.533Z,12.87
2023-01-03T04:42:25.823Z,10.57
2023-01-03T04:44:53.051Z,12.13
2023-01-03T04:47:21.047Z,8.37
2023-01-03T04:49:49.543Z,10.47
2023-01-03T04:52:17.872Z,11.10
2023-01-03T04:54:47.312Z,10.83
2023-01-03T04:57:15.142Z,9.53
2023-01-03T04:59:43.108Z,10.60
2023-01-03T05:02:11.196Z,9.10
2023-01-03T05:04:39.354Z,10.87
2023-01-03T05:07:07.644Z,13.77
2023-01-03T05:09:35.591Z,10.27
2023-01-03T05:12:05.188Z,13.37
2023-01-03T05:14:33.185Z,13.10
2023-01-03T05:17:01.188Z,7.90
2023-01-03T05:19:29.121Z,11.50
2023-01-03T05:22:14.541Z,8.53
2023-01-03T05:25:03.092Z,10.37
2023-01-03T05:27:33.515Z,12.20
2023-01-03T05:30:02.329Z,13.80
2023-01-03T05:32:30.307Z,9.43
2023-01-03T05:34:58.150Z,10.50
2023-01-03T05:37:28.578Z,10.83
2023-01-03T05:39:56.397Z,10.07
2023-01-03T05:42:24.426Z,10.63
2023-01-03T05:44:53.761Z,9.87
2023-01-03T05:47:22.152Z,10.23
2023-01-03T05:49:50.001Z,10.10
2023-01-03T05:52:18.098Z,16.27
2023-01-03T05:54:46.018Z,13.43
2023-01-03T05:57:14.031Z,9.70
2023-01-03T05:59:41.939Z,11.13
2023-01-03T06:02:11.335Z,10.30
2023-01-03T06:04:39.479Z,8.73
2023-01-03T06:07:07.316Z,7.03
2023-01-03T06:09:35.459Z,11.10
2023-01-03T06:12:03.410Z,10.97
2023-01-03T06:14:31.242Z,13.13
2023-01-03T06:17:16.689Z,14.07
2023-01-03T06:19:46.087Z,7.50
2023-01-03T06:22:13.975Z,8.27
2023-01-03T06:24:41.986Z,8.93
2023-01-03T06:27:09.870Z,5.63
2023-01-03T06:29:37.853Z,6.43
2023-01-03T06:32:09.570Z,7.63
2023-01-03T06:34:37.813Z,10.53
2023-01-03T06:37:07.299Z,11.70
2023-01-03T06:39:35.188Z,8.07
2023-01-03T06:42:23.231Z,9.33
2023-01-03T06:45:05.123Z,14.13
2023-01-03T06:47:50.743Z,11.63
2023-01-03T06:50:36.466Z,5.80
2023-01-03T06:53:14.677Z,10.23
2023-01-03T06:55:44.445Z,18.07
2023-01-03T06:58:13.315Z,10.07
2023-01-03T07:00:45.642Z,8.13
2023-01-03T07:03:13.531Z,9.07
2023-01-03T07:05:41.586Z,6.63
2023-01-03T07:08:10.812Z,10.03
2023-01-03T07:10:38.670Z,7.77
2023-01-03T07:13:23.709Z,9.53
2023-01-03T07:15:51.836Z,8.57
2023-01-03T07:18:20.030Z,6.47
2023-01-03T07:20:47.933Z,7.27
2023-01-03T07:23:17.083Z,6.87
2023-01-03T07:25:45.081Z,9.40
2023-01-03T07:28:15.010Z,9.93
2023-01-03T07:30:44.541Z,6.67
2023-01-03T07:33:14.886Z,9.77
2023-01-03T07:35:42.973Z,11.37
2023-01-03T07:38:12.689Z,12.80
2023-01-03T07:40:42.170Z,16.10
2023-01-03T07:43:28.271Z,10.33
2023-01-03T07:45:56.215Z,7.30
2023-01-03T07:48:24.092Z,9.13
2023-01-03T07:50:57.350Z,11.07
2023-01-03T07:53:25.523Z,7.10
2023-01-03T07:55:54.978Z,8.20
2023-01-03T07:58:23.036Z,9.27
2023-01-03T08:00:51.089Z,12.70
2023-01-03T08:03:19.431Z,11.50
2023-01-03T08:05:47.452Z,10.47
2023-01-03T08:08:15.287Z,8.40
2023-01-03T08:11:00.514Z,8.13
2023-01-03T08:13:29.770Z,10.27
2023-01-03T08:15:58.233Z,10.90
2023-01-03T08:18:27.788Z,5.77
2023-01-03T08:20:57.515Z,5.17
2023-01-03T08:23:26.899Z,9.50
2023-01-03T08:26:01.254Z,7.30
2023-01-03T08:28:30.859Z,8.27
2023-01-03T08:30:59.564Z,7.67
2023-01-03T08:33:29.511Z,7.20
2023-01-03T08:36:01.718Z,5.27
2023-01-03T08:38:35.639Z,6.10
2023-01-03T08:41:06.368Z,8.73
2023-01-03T08:43:38.068Z,12.53
2023-01-03T08:46:09.186Z,7.40
2023-01-03T08:48:37.244Z,11.53
2023-01-03T08:51:05.744Z,7.93
2023-01-03T08:53:36.049Z,11.77
2023-01-03T08:56:04.321Z,5.60
2023-01-03T08:58:32.331Z,9.73
2023-01-03T09:01:04.167Z,8.07
2023-01-03T09:03:32.295Z,6.43
2023-01-03T09:06:01.888Z,7.40
2023-01-03T09:08:31.190Z,6.43
2023-01-03T09:10:59.467Z,5.93
2023-01-03T09:13:27.463Z,5.77
2023-01-03T09:16:03.320Z,6.30
2023-01-03T09:18:31.271Z,6.63
2023-01-03T09:20:59.252Z,8.90
2023-01-03T09:23:27.271Z,6.03
2023-01-03T09:25:55.138Z,8.87
2023-01-03T09:28:23.244Z,7.60
2023-01-03T09:30:51.449Z,6.67
2023-01-03T09:33:20.747Z,6.00
2023-01-03T09:35:48.771Z,8.63
2023-01-03T09:38:16.816Z,7.50
2023-01-03T09:40:46.666Z,10.37
2023-01-03T09:43:24.758Z,6.20
2023-01-03T09:45:55.218Z,5.13
2023-01-03T09:48:33.777Z,7.70
2023-01-03T09:51:22.526Z,5.10
2023-01-03T09:54:08.225Z,7.87
2023-01-03T09:56:53.410Z,9.07
2023-01-03T09:59:38.801Z,7.53
2023-01-03T10:02:48.077Z,7.17
2023-01-03T10:05:37.099Z,8.60
2023-01-03T10:08:24.360Z,8.40
2023-01-03T10:11:02.070Z,8.47
2023-01-03T10:13:41.814Z,7.43
2023-01-03T10:16:16.588Z,41.60
2023-01-03T10:19:02.244Z,31.77
2023-01-03T10:21:38.624Z,14.23
2023-01-03T10:24:19.241Z,24.63
2023-01-03T10:26:49.862Z,15.53
2023-01-03T10:29:19.913Z,27.93
2023-01-03T10:32:04.416Z,15.77
2023-01-03T10:34:32.360Z,18.97
2023-01-03T10:37:02.558Z,20.70
2023-01-03T10:39:33.111Z,17.07
2023-01-03T10:42:01.414Z,8.30
2023-01-03T10:44:31.722Z,9.20
2023-01-03T10:47:01.237Z,10.87
2023-01-03T10:49:31.069Z,18.37
2023-01-03T10:52:03.845Z,11.27
2023-01-03T10:54:49.824Z,31.27
2023-01-03T10:57:43.617Z,12.37
2023-01-03T11:00:30.599Z,10.27
2023-01-03T11:03:11.601Z,17.33
2023-01-03T11:05:40.891Z,8.67
2023-01-03T11:08:18.746Z,8.03
2023-01-03T11:10:56.307Z,9.10
2023-01-03T11:13:35.464Z,11.20
2023-01-03T11:16:13.591Z,11.10
2023-01-03T11:18:43.015Z,7.07
2023-01-03T11:21:17.925Z,7.03
2023-01-03T11:24:03.655Z,9.50
2023-01-03T11:26:45.308Z,7.40
2023-01-03T11:29:25.145Z,8.43
2023-01-03T11:32:00.999Z,8.13
2023-01-03T11:35:22.397Z,9.47
2023-01-03T11:37:53.064Z,8.23
2023-01-03T11:40:29.820Z,6.73
2023-01-03T11:43:14.438Z,8.33
2023-01-03T11:45:55.132Z,9.30
2023-01-03T11:48:47.124Z,10.87
2023-01-03T11:51:21.071Z,5.50
2023-01-03T11:54:06.070Z,9.67
2023-01-03T11:56:39.468Z,8.93
2023-01-03T11:59:40.155Z,6.53
2023-01-03T12:02:44.416Z,6.30
2023-01-03T12:05:37.835Z,7.77
2023-01-03T12:08:22.754Z,6.80
2023-01-03T12:10:57.031Z,7.23
2023-01-03T12:13:33.914Z,6.03
2023-01-03T12:16:08.698Z,6.87
2023-01-03T12:18:50.990Z,5.53
2023-01-03T12:21:25.939Z,8.27
2023-01-03T12:24:02.420Z,5.83
2023-01-03T12:26:31.503Z,7.03
2023-01-03T12:29:06.909Z,7.37
2023-01-03T12:31:40.140Z,4.33
2023-01-03T12:34:19.540Z,5.87
2023-01-03T12:36:58.080Z,8.17
2023-01-03T12:39:37.995Z,5.83
2023-01-03T12:42:11.905Z,10.03
2023-01-03T12:44:45.540Z,7.50
2023-01-03T12:47:30.140Z,5.20
2023-01-03T12:50:04.771Z,5.47
2023-01-03T12:52:35.365Z,3.93
2023-01-03T12:55:10.064Z,3.57
2023-01-03T12:57:59.206Z,3.60
2023-01-03T13:00:41.033Z,4.03
2023-01-03T13:03:19.042Z,2.50
2023-01-03T13:05:50.873Z,8.17
2023-01-03T13:08:31.157Z,3.40
2023-01-03T13:11:04.191Z,3.60
2023-01-03T13:13:34.124Z,5.13
2023-01-03T13:16:41.054Z,5.20
2023-01-03T13:19:51.605Z,9.40
2023-01-03T13:22:52.055Z,7.27
2023-01-03T13:25:41.418Z,5.17
2023-01-03T13:28:31.324Z,5.73
2023-01-03T13:31:43.894Z,5.13
2023-01-03T13:34:31.662Z,5.70
2023-01-03T13:37:24.205Z,4.00
2023-01-03T13:40:21.925Z,5.87
2023-01-03T13:43:01.744Z,5.57
2023-01-03T13:46:01.131Z,7.07
2023-01-03T13:48:32.621Z,6.10
2023-01-03T13:51:30.188Z,2.70
2023-01-03T13:54:04.579Z,5.20
2023-01-03T13:56:34.041Z,6.23
2023-01-03T13:59:13.447Z,5.67
2023-01-03T14:02:02.148Z,5.50
2023-01-03T14:05:01.102Z,2.77
2023-01-03T14:07:52.247Z,4.73
2023-01-03T14:10:37.312Z,8.07
2023-01-03T14:13:22.598Z,2.17
2023-01-03T14:15:52.965Z,3.97
2023-01-03T14:18:25.599Z,6.57
2023-01-03T14:20:55.418Z,2.63
2023-01-03T14:26:18.026Z,5.13
2023-01-03T14:28:49.997Z,3.40
2023-01-03T14:31:21.273Z,3.47
2023-01-03T14:33:54.497Z,3.70
2023-01-03T14:36:22.419Z,2.30
2023-01-03T14:38:53.314Z,9.87
2023-01-03T14:41:40.147Z,2.70
2023-01-03T14:44:16.229Z,11.53
2023-01-03T14:46:53.269Z,5.27
2023-01-03T14:49:24.036Z,3.10
2023-01-03T14:51:54.703Z,4.17
2023-01-03T14:54:24.215Z,4.87
2023-01-03T14:56:52.085Z,3.60
2023-01-03T14:59:23.296Z,5.57
2023-01-03T15:01:51.885Z,4.50
2023-01-03T15:04:19.906Z,2.87
2023-01-03T15:07:06.560Z,2.20
2023-01-03T15:09:42.284Z,3.10
2023-01-03T15:12:10.206Z,2.90
2023-01-03T15:14:39.998Z,3.87
2023-01-03T15:17:14.708Z,5.73
2023-01-03T15:19:49.581Z,3.50
2023-01-03T15:22:21.561Z,4.27
2023-01-03T15:24:54.897Z,3.43
2023-01-03T15:27:43.602Z,3.67
2023-01-03T15:30:21.041Z,4.07
2023-01-03T15:33:00.976Z,4.77
2023-01-03T15:35:36.953Z,2.00
2023-01-03T15:38:09.179Z,5.17
2023-01-03T15:40:40.334Z,5.37
2023-01-03T15:43:23.596Z,3.37
2023-01-03T15:46:01.814Z,5.80
2023-01-03T15:48:31.621Z,5.50
2023-01-03T15:50:59.757Z,5.90
2023-01-03T15:53:30.921Z,4.13
2023-01-03T15:56:04.269Z,4.33
2023-01-03T15:58:33.552Z,6.53
2023-01-03T16:01:02.107Z,7.47
2023-01-03T16:03:33.100Z,5.37
2023-01-03T16:06:01.157Z,11.27
2023-01-03T16:08:32.315Z,4.17
2023-01-03T16:11:03.467Z,5.67
2023-01-03T16:13:38.278Z,5.87
2023-01-03T16:16:08.637Z,4.57
2023-01-03T16:18:40.137Z,4.10
2023-01-03T16:21:08.101Z,4.67
2023-01-03T16:23:36.383Z,3.13
2023-01-03T16:26:06.202Z,15.23
2023-01-03T16:28:34.110Z,10.77
2023-01-03T16:31:04.310Z,7.00
2023-01-03T16:33:35.612Z,6.90
2023-01-03T16:36:04.133Z,4.07
2023-01-03T16:38:34.162Z,6.60
2023-01-03T16:41:02.165Z,8.33
2023-01-03T16:43:31.585Z,9.17
2023-01-03T16:46:00.759Z,6.00
2023-01-03T16:48:39.281Z,5.93
2023-01-03T16:51:07.463Z,6.47
2023-01-03T16:53:38.716Z,7.70
2023-01-03T16:56:08.456Z,3.60
2023-01-03T16:58:37.630Z,8.00
2023-01-03T17:01:06.306Z,8.43
2023-01-03T17:03:41.274Z,17.00
2023-01-03T17:06:22.995Z,17.20
2023-01-03T17:08:51.139Z,10.03
2023-01-03T17:11:19.297Z,13.90
2023-01-03T17:13:49.529Z,11.30
2023-01-03T17:16:19.563Z,7.23
2023-01-03T17:18:47.555Z,8.07
2023-01-03T17:21:24.098Z,8.83
2023-01-03T17:23:53.901Z,11.80
2023-01-03T17:26:23.769Z,12.87
2023-01-03T17:28:54.515Z,5.37
2023-01-03T17:31:24.084Z,17.97
2023-01-03T17:33:53.028Z,10.83
2023-01-03T17:36:25.341Z,15.17
2023-01-03T17:38:54.792Z,12.77
2023-01-03T17:41:25.181Z,9.73
2023-01-03T17:43:54.526Z,4.47
2023-01-03T17:46:41.533Z,9.93
2023-01-03T17:49:26.921Z,6.10
2023-01-03T17:51:58.634Z,6.07
2023-01-03T17:54:29.808Z,6.83
2023-01-03T17:56:59.482Z,5.50
2023-01-03T17:59:29.253Z,4.13
2023-01-03T18:01:57.759Z,6.30
2023-01-03T18:04:44.079Z,4.43
2023-01-03T18:07:20.991Z,6.80
2023-01-03T18:09:50.086Z,9.30
2023-01-03T18:12:21.033Z,9.43
2023-01-03T18:14:51.173Z,3.60
2023-01-03T18:17:28.338Z,4.10
2023-01-03T18:19:56.903Z,6.20
2023-01-03T18:22:25.076Z,4.40
2023-01-03T18:24:54.383Z,9.03
2023-01-03T18:27:23.993Z,7.60
2023-01-03T18:29:53.322Z,3.47
2023-01-03T18:32:28.495Z,9.03
2023-01-03T18:34:56.679Z,6.80
2023-01-03T18:37:28.119Z,5.10
2023-01-03T18:39:56.322Z,6.30
2023-01-03T18:42:41.568Z,10.27
2023-01-03T18:45:13.493Z,2.23
2023-01-03T18:47:41.389Z,6.70
2023-01-03T18:50:13.577Z,3.00
2023-01-03T18:52:42.278Z,4.00
2023-01-03T18:55:16.769Z,5.83
2023-01-03T18:57:45.050Z,4.20
2023-01-03T19:00:25.805Z,5.77
2023-01-03T19:02:54.714Z,8.10
2023-01-03T19:05:23.006Z,2.43
2023-01-03T19:07:52.859Z,2.53
2023-01-03T19:10:23.434Z,4.43
2023-01-03T19:12:53.336Z,5.77
2023-01-03T19:15:25.471Z,4.33
2023-01-03T19:17:53.594Z,4.33
2023-01-03T19:20:26.477Z,4.93
2023-01-03T19:22:55.874Z,3.10
2023-01-03T19:25:27.334Z,3.43
2023-01-03T19:27:57.256Z,2.53
2023-01-03T19:30:37.153Z,5.37
2023-01-03T19:33:06.927Z,3.23
2023-01-03T19:35:34.901Z,3.67
2023-01-03T19:38:03.096Z,4.67
2023-01-03T19:40:34.216Z,5.37
2023-01-03T19:43:02.635Z,2.43
2023-01-03T19:45:35.714Z,6.03
2023-01-03T19:48:05.840Z,4.80
2023-01-03T19:50:35.812Z,8.67
2023-01-03T19:53:06.320Z,5.47
2023-01-03T19:55:39.078Z,7.47
2023-01-03T19:58:16.732Z,4.77
2023-01-03T20:00:48.565Z,3.67
2023-01-03T20:03:27.018Z,2.33
2023-01-03T20:05:55.521Z,2.40
2023-01-03T20:08:23.476Z,4.90
2023-01-03T20:10:52.652Z,6.47
2023-01-03T20:13:26.284Z,5.80
2023-01-03T20:16:00.487Z,5.07
2023-01-03T20:18:34.383Z,5.13
2023-01-03T20:21:06.426Z,8.00
2023-01-03T20:23:41.640Z,7.37
2023-01-03T20:26:19.055Z,6.23
2023-01-03T20:28:46.946Z,8.37
2023-01-03T20:31:20.279Z,4.80
2023-01-03T20:33:48.867Z,4.40
2023-01-03T20:36:23.036Z,3.77
2023-01-03T20:38:54.356Z,6.20
2023-01-03T20:41:36.045Z,4.50
2023-01-03T20:44:05.065Z,6.30
2023-01-03T20:46:34.712Z,4.33
2023-01-03T20:49:04.323Z,4.67
2023-01-03T20:51:32.439Z,9.10
2023-01-03T20:54:00.439Z,6.33
2023-01-03T20:56:29.612Z,4.73
2023-01-03T20:58:58.390Z,4.07
2023-01-03T21:01:26.414Z,3.70
2023-01-03T21:03:56.213Z,2.53
2023-01-03T21:06:26.889Z,4.57
2023-01-03T21:08:56.753Z,5.73
2023-01-03T21:11:26.354Z,2.90
2023-01-03T21:13:54.533Z,4.27
2023-01-03T21:16:34.379Z,5.67
2023-01-03T21:19:06.202Z,2.90
2023-01-03T21:21:34.857Z,3.73
2023-01-03T21:24:03.093Z,7.10
2023-01-03T21:26:31.211Z,5.40
2023-01-03T21:28:59.551Z,5.33
2023-01-03T21:31:27.859Z,4.63
2023-01-03T21:33:55.980Z,5.97
2023-01-03T21:36:27.859Z,7.50
2023-01-03T21:38:56.444Z,9.97
2023-01-03T21:41:26.301Z,4.20
2023-01-03T21:43:56.639Z,4.47
2023-01-03T21:46:25.466Z,9.40
2023-01-03T21:48:53.753Z,5.70
2023-01-03T21:51:33.430Z,5.07
2023-01-03T21:54:07.918Z,3.53
2023-01-03T21:56:45.361Z,3.87
2023-01-03T21:59:14.257Z,5.90
2023-01-03T22:01:57.679Z,7.93
2023-01-03T22:04:25.731Z,4.83
2023-01-03T22:07:00.682Z,4.73
2023-01-03T22:09:49.138Z,3.87
2023-01-03T22:12:17.393Z,4.00
2023-01-03T22:14:45.321Z,5.47
2023-01-03T22:17:13.537Z,7.03
2023-01-03T22:19:41.648Z,6.73
2023-01-03T22:22:09.635Z,2.90
2023-01-03T22:24:38.875Z,4.73
2023-01-03T22:27:06.741Z,7.47
2023-01-03T22:29:34.670Z,12.73
2023-01-03T22:32:02.569Z,7.77
2023-01-03T22:34:30.606Z,5.57
2023-01-03T22:36:58.598Z,4.87
2023-01-03T22:39:26.639Z,4.90
2023-01-03T22:41:57.463Z,5.10
2023-01-03T22:44:25.454Z,8.07
2023-01-03T22:46:53.364Z,3.77
2023-01-03T22:49:21.315Z,4.40
2023-01-03T22:51:49.140Z,3.10
2023-01-03T22:54:16.975Z,2.50
2023-01-03T22:56:44.841Z,4.73
2023-01-03T22:59:14.031Z,4.57
2023-01-03T23:01:42.005Z,5.60
2023-01-03T23:04:10.131Z,4.57
2023-01-03T23:06:37.924Z,6.03
2023-01-03T23:09:06.287Z,5.63
2023-01-03T23:11:52.358Z,4.03
2023-01-03T23:14:23.351Z,3.83
2023-01-03T23:16:53.358Z,5.77
2023-01-03T23:19:23.317Z,4.43
2023-01-03T23:21:52.186Z,8.60
2023-01-03T23:24:22.436Z,2.47
2023-01-03T23:26:51.180Z,3.43
2023-01-03T23:29:19.628Z,5.83
2023-01-03T23:31:48.930Z,6.90
2023-01-03T23:34:16.898Z,5.70
2023-01-03T23:36:45.012Z,1.93
2023-01-03T23:39:13.538Z,3.27
2023-01-03T23:41:41.378Z,5.70
2023-01-03T23:44:09.381Z,2.57
2023-01-03T23:46:37.168Z,4.00
2023-01-03T23:49:06.539Z,3.27
2023-01-03T23:51:34.371Z,1.23
2023-01-03T23:54:02.237Z,5.37
2023-01-03T23:56:30.077Z,3.73
2023-01-03T23:58:57.911Z,2.23
